Time;durP1;ratioP1;P1;durP2;ratioP2;P2;SDS_P1;SDS_P2;PMS_P1;PMS_P2;Temp;Humidity;BMP_temperature;BMP_pressure;BME280_temperature;BME280_humidity;BME280_pressure;Samples;Min_cycle;Max_cycle;Signal;HPM_P1;HPM_P2
2022/06/18 00:02:15;;;;;;;1.95;1.83;;;24.10;84.50;;;;;;4949766;28;20031;-36
2022/06/18 00:04:42;;;;;;;2.30;2.10;;;24.10;84.80;;;;;;4948756;28;20050;-35
2022/06/18 00:07:12;;;;;;;3.05;2.03;;;24.00;84.80;;;;;;4949443;28;20495;-34
2022/06/18 00:09:42;;;;;;;3.45;2.03;;;23.90;85.00;;;;;;4949058;28;20080;-35
2022/06/18 00:14:58;;;;;;;2.10;1.90;;;23.90;85.50;;;;;;4949545;29;20577;-34
2022/06/18 00:17:24;;;;;;;3.38;2.20;;;23.80;85.50;;;;;;4949200;28;20486;-35
2022/06/18 00:19:49;;;;;;;2.50;2.30;;;23.80;85.70;;;;;;4948421;28;20057;-35
2022/06/18 00:22:18;;;;;;;3.55;2.20;;;23.70;85.90;;;;;;4948533;28;20458;-36
2022/06/18 00:24:44;;;;;;;2.78;2.10;;;23.70;86.00;;;;;;4948153;29;20090;-35
2022/06/18 00:27:15;;;;;;;3.03;2.20;;;23.60;86.00;;;;;;4949419;28;20027;-35
2022/06/18 00:29:40;;;;;;;4.13;2.25;;;23.60;86.10;;;;;;4948178;29;20106;-34
2022/06/18 00:32:07;;;;;;;2.33;2.13;;;23.60;86.10;;;;;;4948976;29;20126;-34
2022/06/18 00:34:32;;;;;;;3.95;2.22;;;23.50;86.20;;;;;;4948350;29;20569;-35
2022/06/18 00:36:58;;;;;;;2.47;2.08;;;23.50;86.20;;;;;;4948888;29;20521;-35
2022/06/18 00:39:24;;;;;;;1.90;1.80;;;23.50;86.30;;;;;;4947305;28;20027;-33
2022/06/18 00:41:54;;;;;;;2.45;2.20;;;23.50;86.30;;;;;;4949128;29;20059;-35
2022/06/18 00:44:27;;;;;;;2.13;1.92;;;23.50;86.30;;;;;;4948244;28;20030;-36
2022/06/18 00:47:20;;;;;;;2.42;2.22;;;23.50;86.40;;;;;;4948477;28;20035;-34
2022/06/18 00:49:51;;;;;;;4.80;2.28;;;23.40;86.60;;;;;;4948043;28;20422;-33
2022/06/18 00:52:39;;;;;;;2.47;2.20;;;23.40;86.70;;;;;;4929419;29;20284;-34
2022/06/18 00:55:14;;;;;;;2.55;2.05;;;23.40;87.00;;;;;;4945740;28;20046;-36
2022/06/18 00:57:54;;;;;;;3.90;2.42;;;23.40;87.10;;;;;;4948207;28;20061;-35
2022/06/18 01:00:33;;;;;;;4.43;2.30;;;23.40;87.30;;;;;;4947166;29;20055;-35
2022/06/18 01:02:59;;;;;;;4.50;2.10;;;23.30;88.20;;;;;;4948487;28;20138;-34
2022/06/18 01:05:32;;;;;;;5.40;2.30;;;23.30;87.70;;;;;;4947522;29;20126;-36
2022/06/18 01:08:01;;;;;;;3.17;2.25;;;23.20;87.90;;;;;;4948003;29;20419;-35
2022/06/18 01:10:31;;;;;;;2.42;2.22;;;23.20;88.20;;;;;;4947310;28;20490;-34
2022/06/18 01:12:58;;;;;;;2.58;2.08;;;23.20;88.40;;;;;;4948156;28;20055;-35
2022/06/18 01:15:24;;;;;;;2.50;2.30;;;23.10;88.50;;;;;;4947606;28;20141;-35
2022/06/18 01:17:53;;;;;;;2.85;2.55;;;23.10;88.70;;;;;;4948419;28;20419;-34
2022/06/18 01:20:20;;;;;;;2.90;2.33;;;23.10;88.90;;;;;;4947271;28;20098;-35
2022/06/18 01:23:25;;;;;;;2.75;2.20;;;23.00;89.00;;;;;;4947175;28;20406;-34
2022/06/18 01:25:52;;;;;;;2.85;2.30;;;23.00;89.20;;;;;;4946399;28;20168;-35
2022/06/18 01:28:18;;;;;;;3.70;2.55;;;22.90;89.10;;;;;;4947260;28;20066;-35
2022/06/18 01:30:45;;;;;;;2.90;2.63;;;22.90;89.20;;;;;;4947846;28;20027;-33
2022/06/18 01:33:12;;;;;;;4.03;2.63;;;22.90;89.30;;;;;;4947640;29;20445;-34
2022/06/18 01:35:41;;;;;;;3.00;2.72;;;22.90;89.40;;;;;;4946509;28;20034;-34
2022/06/18 01:38:08;;;;;;;6.32;2.42;;;22.80;89.40;;;;;;4948143;28;20027;-35
2022/06/18 01:40:48;;;;;;;3.08;2.78;;;22.80;89.50;;;;;;4947064;29;20016;-37
2022/06/18 01:43:17;;;;;;;3.30;2.50;;;22.80;89.80;;;;;;4946914;29;20026;-33
2022/06/18 01:45:45;;;;;;;2.60;2.40;;;22.80;89.80;;;;;;4947907;28;20098;-35
2022/06/18 01:48:20;;;;;;;3.63;3.03;;;22.70;89.80;;;;;;4948289;28;20027;-35
2022/06/18 01:50:57;;;;;;;2.80;2.60;;;22.70;90.00;;;;;;4947140;28;20106;-35
2022/06/18 01:53:33;;;;;;;3.10;2.80;;;22.70;90.10;;;;;;4948179;28;20043;-34
2022/06/18 01:56:08;;;;;;;3.75;3.03;;;22.70;90.20;;;;;;4947231;28;20074;-35
2022/06/18 01:58:42;;;;;;;4.07;2.47;;;22.70;90.30;;;;;;4947499;28;20035;-34
2022/06/18 02:01:14;;;;;;;3.47;3.13;;;22.60;90.20;;;;;;4947831;29;20027;-35
2022/06/18 02:03:40;;;;;;;4.47;2.70;;;22.60;90.20;;;;;;4947209;28;20027;-35
2022/06/18 02:06:08;;;;;;;3.70;2.72;;;22.60;90.30;;;;;;4947208;28;20506;-34
2022/06/18 02:08:34;;;;;;;3.38;2.78;;;22.60;90.50;;;;;;4947265;28;20035;-36
2022/06/18 02:11:03;;;;;;;3.05;2.75;;;22.60;90.50;;;;;;4947355;28;20167;-35
2022/06/18 02:13:36;;;;;;;3.03;2.58;;;22.50;90.60;;;;;;4946865;28;20046;-34
2022/06/18 02:16:10;;;;;;;2.83;2.50;;;22.50;90.70;;;;;;4947750;29;20038;-34
2022/06/18 02:18:38;;;;;;;4.10;2.45;;;22.50;90.80;;;;;;4946286;28;20023;-35
2022/06/18 02:21:07;;;;;;;3.65;2.90;;;22.40;90.80;;;;;;4947594;28;20093;-34
2022/06/18 02:23:33;;;;;;;2.85;2.65;;;22.40;90.90;;;;;;4946880;28;20396;-34
2022/06/18 02:25:59;;;;;;;3.00;2.70;;;22.40;91.00;;;;;;4946698;28;20027;-35
2022/06/18 02:28:32;;;;;;;5.05;2.80;;;22.30;91.10;;;;;;4947181;29;20034;-35
2022/06/18 02:31:01;;;;;;;3.53;2.90;;;22.30;91.20;;;;;;4947706;28;20448;-36
2022/06/18 02:33:48;;;;;;;3.55;3.00;;;22.30;91.20;;;;;;4949917;28;20047;-36
2022/06/18 02:36:21;;;;;;;2.97;2.72;;;22.30;91.40;;;;;;4951664;28;20118;-34
2022/06/18 02:38:47;;;;;;;4.35;3.30;;;22.30;91.40;;;;;;4949778;28;20050;-34
2022/06/18 02:41:13;;;;;;;3.17;2.88;;;22.20;91.40;;;;;;4950939;29;20027;-35
2022/06/18 02:43:41;;;;;;;3.88;3.30;;;22.20;91.50;;;;;;4950552;28;20024;-34
2022/06/18 02:46:07;;;;;;;4.13;3.20;;;22.20;91.60;;;;;;4950420;28;20312;-36
2022/06/18 02:48:35;;;;;;;3.47;3.17;;;22.10;91.60;;;;;;4950876;28;20059;-35
2022/06/18 02:51:03;;;;;;;3.10;2.80;;;22.10;91.70;;;;;;4951148;29;20031;-34
2022/06/18 02:53:30;;;;;;;4.30;3.22;;;22.10;91.70;;;;;;4949091;28;20126;-35
2022/06/18 02:56:01;;;;;;;3.42;3.13;;;22.10;91.80;;;;;;4950749;28;20039;-34
2022/06/18 02:58:46;;;;;;;4.05;3.42;;;22.00;91.80;;;;;;4950136;28;20023;-35
2022/06/18 03:01:20;;;;;;;4.18;3.38;;;22.00;91.90;;;;;;4950331;29;20034;-36
2022/06/18 03:03:50;;;;;;;3.17;2.88;;;22.00;92.00;;;;;;4950322;28;20023;-36
2022/06/18 03:06:17;;;;;;;4.60;3.08;;;22.00;92.10;;;;;;4950255;28;20035;-34
2022/06/18 03:08:46;;;;;;;4.20;3.63;;;22.00;92.20;;;;;;4949747;28;20111;-34
2022/06/18 03:13:56;;;;;;;4.63;2.95;;;22.00;92.40;;;;;;4949762;29;20526;-34
2022/06/18 03:16:22;;;;;;;3.53;3.20;;;21.90;92.40;;;;;;4950081;29;20026;-33
2022/06/18 03:18:52;;;;;;;4.20;3.45;;;21.90;92.50;;;;;;4950057;28;20028;-35
2022/06/18 03:21:50;;;;;;;4.35;3.53;;;21.90;92.60;;;;;;4949402;29;20034;-34
2022/06/18 03:24:16;;;;;;;4.05;3.05;;;21.90;92.70;;;;;;4950007;28;20442;-34
2022/06/18 03:26:42;;;;;;;4.43;3.60;;;21.90;92.70;;;;;;4949843;28;20023;-37
2022/06/18 03:29:08;;;;;;;3.65;3.25;;;21.90;92.80;;;;;;4948922;29;20502;-34
2022/06/18 03:31:35;;;;;;;4.25;3.58;;;21.80;92.80;;;;;;4949278;28;20082;-36
2022/06/18 03:34:00;;;;;;;4.18;3.78;;;21.80;92.90;;;;;;4950191;28;20038;-35
2022/06/18 03:36:26;;;;;;;5.10;3.90;;;21.90;93.00;;;;;;4949059;28;20035;-35
2022/06/18 03:38:52;;;;;;;3.92;3.58;;;21.80;93.00;;;;;;4949964;29;20038;-35
2022/06/18 03:41:19;;;;;;;4.10;3.58;;;21.90;93.10;;;;;;4950437;29;20110;-36
2022/06/18 03:43:44;;;;;;;4.60;4.20;;;21.90;93.10;;;;;;4948677;28;20028;-34
2022/06/18 03:46:13;;;;;;;4.22;3.88;;;21.80;93.10;;;;;;4950610;29;20037;-34
2022/06/18 03:48:53;;;;;;;4.15;3.80;;;21.80;93.20;;;;;;4949626;28;20082;-35
2022/06/18 03:51:20;;;;;;;4.25;3.92;;;21.80;93.20;;;;;;4949247;28;20791;-36
2022/06/18 03:53:46;;;;;;;6.40;4.85;;;21.80;93.20;;;;;;4949544;28;20483;-35
2022/06/18 03:56:13;;;;;;;5.00;4.18;;;21.80;93.20;;;;;;4949139;28;20050;-35
2022/06/18 03:58:40;;;;;;;4.63;4.00;;;21.80;93.30;;;;;;4949468;28;20038;-36
2022/06/18 04:01:06;;;;;;;4.47;4.07;;;21.80;93.30;;;;;;4949572;28;20031;-35
2022/06/18 04:03:31;;;;;;;6.43;4.20;;;21.80;93.40;;;;;;4948955;28;20070;-35
2022/06/18 04:05:57;;;;;;;4.72;3.90;;;21.90;93.50;;;;;;4949600;29;20093;-34
2022/06/18 04:08:23;;;;;;;4.65;4.25;;;21.80;93.50;;;;;;4949034;29;20031;-34
2022/06/18 04:10:49;;;;;;;5.60;4.40;;;21.90;93.50;;;;;;4948890;28;20039;-34
2022/06/18 04:13:15;;;;;;;6.18;4.70;;;21.80;93.50;;;;;;4948979;28;20062;-34
2022/06/18 04:15:41;;;;;;;4.93;4.43;;;21.90;93.60;;;;;;4948706;29;20098;-34
2022/06/18 04:18:07;;;;;;;5.70;4.30;;;21.80;93.50;;;;;;4948705;28;20050;-34
2022/06/18 04:20:37;;;;;;;4.93;4.45;;;21.90;93.90;;;;;;4948402;29;20420;-34
2022/06/18 04:23:04;;;;;;;4.97;4.47;;;21.90;93.60;;;;;;4939041;29;20039;-34
2022/06/18 04:25:30;;;;;;;5.82;4.70;;;21.80;93.60;;;;;;4948492;28;20189;-34
2022/06/18 04:27:57;;;;;;;4.95;4.50;;;21.80;93.70;;;;;;4949052;28;20034;-35
2022/06/18 04:30:26;;;;;;;5.35;4.80;;;21.80;93.80;;;;;;4949075;28;20031;-35
2022/06/18 04:32:52;;;;;;;5.07;4.68;;;21.80;93.80;;;;;;4945250;29;20043;-35
2022/06/18 04:35:18;;;;;;;4.68;4.22;;;21.80;93.90;;;;;;4948568;28;20440;-34
2022/06/18 04:37:44;;;;;;;4.80;4.32;;;21.80;93.90;;;;;;4948616;29;20221;-35
2022/06/18 04:40:26;;;;;;;4.70;4.22;;;21.90;93.90;;;;;;4948712;28;20379;-38
2022/06/18 04:42:52;;;;;;;5.05;4.60;;;21.90;93.90;;;;;;4948565;28;20514;-33
2022/06/18 04:45:17;;;;;;;5.32;4.40;;;21.90;93.90;;;;;;4947889;29;20027;-34
2022/06/18 04:47:43;;;;;;;4.93;4.45;;;21.90;93.90;;;;;;4948070;28;20046;-35
2022/06/18 04:50:16;;;;;;;5.03;4.45;;;21.90;93.90;;;;;;4948836;29;20388;-34
2022/06/18 04:52:42;;;;;;;5.93;4.78;;;22.00;93.90;;;;;;4947544;28;20059;-34
2022/06/18 04:55:08;;;;;;;4.60;4.10;;;22.00;93.80;;;;;;4948206;28;20102;-35
2022/06/18 04:57:33;;;;;;;5.00;4.60;;;22.10;93.80;;;;;;4948204;28;20055;-33
2022/06/18 04:59:59;;;;;;;7.35;4.90;;;22.10;93.70;;;;;;4948198;29;20030;-35
2022/06/18 05:02:30;;;;;;;6.63;4.45;;;22.10;93.70;;;;;;4948683;29;20023;-34
2022/06/18 05:04:56;;;;;;;4.63;4.23;;;22.10;93.80;;;;;;4948686;29;20027;-34
2022/06/18 05:07:22;;;;;;;4.95;4.47;;;22.20;93.80;;;;;;4947632;29;20042;-35
2022/06/18 05:09:48;;;;;;;4.80;4.40;;;22.20;93.90;;;;;;4949153;29;20538;-34
2022/06/18 05:12:15;;;;;;;5.95;4.75;;;22.20;93.90;;;;;;4948226;28;20414;-35
2022/06/18 05:14:41;;;;;;;5.05;4.40;;;22.20;94.00;;;;;;4947729;28;20023;-35
2022/06/18 05:17:11;;;;;;;4.20;3.78;;;22.20;94.00;;;;;;4947987;28;21199;-35
2022/06/18 05:19:37;;;;;;;5.63;4.85;;;22.20;94.10;;;;;;4947817;28;20019;-34
2022/06/18 05:22:03;;;;;;;5.65;4.68;;;22.30;94.10;;;;;;4948111;28;20054;-36
2022/06/18 05:24:29;;;;;;;5.07;4.53;;;22.40;94.10;;;;;;4947408;29;20037;-34
2022/06/18 05:26:57;;;;;;;5.05;4.55;;;22.40;94.10;;;;;;4948464;29;20373;-35
2022/06/18 05:29:23;;;;;;;7.30;4.57;;;22.40;94.20;;;;;;4947010;29;20027;-35
2022/06/18 05:31:49;;;;;;;7.25;5.03;;;22.40;94.30;;;;;;4947919;29;20046;-34
2022/06/18 05:34:14;;;;;;;5.72;4.40;;;22.40;94.30;;;;;;4946992;29;20474;-34
2022/06/18 05:36:40;;;;;;;5.03;4.25;;;22.40;94.40;;;;;;4948034;29;20479;-34
2022/06/18 05:39:08;;;;;;;4.60;4.20;;;22.50;94.40;;;;;;4948348;29;20435;-35
2022/06/18 05:41:34;;;;;;;6.15;4.82;;;22.50;94.40;;;;;;4947069;28;20081;-34
2022/06/18 05:43:59;;;;;;;6.30;4.63;;;22.50;94.40;;;;;;4948083;28;20483;-34
2022/06/18 05:46:25;;;;;;;5.13;4.63;;;22.50;94.40;;;;;;4947460;29;20422;-33
2022/06/18 05:48:52;;;;;;;5.97;4.93;;;22.60;94.40;;;;;;4947309;29;20027;-33
2022/06/18 05:51:18;;;;;;;5.72;5.10;;;22.60;94.40;;;;;;4947456;28;20462;-35
2022/06/18 05:53:43;;;;;;;8.00;5.13;;;22.70;94.50;;;;;;4947275;29;20039;-34
2022/06/18 05:56:10;;;;;;;7.20;5.18;;;22.70;94.50;;;;;;4947359;28;20051;-34
2022/06/18 05:58:36;;;;;;;8.20;5.75;;;22.70;94.50;;;;;;4947409;29;20326;-34
2022/06/18 06:01:01;;;;;;;6.22;5.60;;;22.80;94.50;;;;;;4947739;29;20066;-34
2022/06/18 06:03:27;;;;;;;6.55;5.13;;;22.80;94.50;;;;;;4946597;29;20102;-34
2022/06/18 06:05:52;;;;;;;7.82;4.95;;;22.80;94.50;;;;;;4948007;29;20530;-34
2022/06/18 06:08:18;;;;;;;6.85;5.20;;;22.80;94.50;;;;;;4951341;28;20035;-35
2022/06/18 06:13:29;;;;;;;4.30;3.75;;;22.90;94.50;;;;;;4951707;29;20046;-36
2022/06/18 06:15:55;;;;;;;5.25;4.13;;;23.00;94.40;;;;;;4951546;28;20028;-35
2022/06/18 06:18:23;;;;;;;7.88;4.38;;;23.00;94.30;;;;;;4950522;29;20027;-34
2022/06/18 06:20:53;;;;;;;4.40;3.70;;;23.10;94.30;;;;;;4951259;29;20054;-34
2022/06/18 06:23:19;;;;;;;5.00;4.10;;;23.00;94.20;;;;;;4932235;29;20039;-34
2022/06/18 06:25:47;;;;;;;7.20;4.10;;;23.00;94.20;;;;;;4944753;29;20035;-35
2022/06/18 06:28:18;;;;;;;7.55;4.32;;;23.10;94.20;;;;;;4951576;28;20483;-35
2022/06/18 06:30:44;;;;;;;8.73;4.70;;;23.10;94.20;;;;;;4950717;28;20154;-34
2022/06/18 06:33:10;;;;;;;4.57;4.10;;;23.10;94.20;;;;;;4951759;29;20151;-35
2022/06/18 06:35:36;;;;;;;5.28;4.13;;;23.20;94.20;;;;;;4951029;29;20530;-37
2022/06/18 06:38:02;;;;;;;5.28;4.07;;;23.20;94.20;;;;;;4950676;28;20027;-35
2022/06/18 06:40:30;;;;;;;7.93;4.65;;;23.20;94.20;;;;;;4950419;28;20019;-36
2022/06/18 06:42:58;;;;;;;5.15;3.95;;;23.30;94.20;;;;;;4951242;28;20024;-36
2022/06/18 06:45:31;;;;;;;4.80;4.30;;;23.30;94.10;;;;;;4949386;29;20031;-36
2022/06/18 06:47:57;;;;;;;6.43;4.07;;;23.30;94.20;;;;;;4950129;28;20070;-35
2022/06/18 06:50:25;;;;;;;7.07;4.07;;;23.40;94.20;;;;;;4949324;29;20023;-35
2022/06/18 06:52:52;;;;;;;7.65;3.90;;;23.40;94.20;;;;;;4949189;29;20039;-35
2022/06/18 06:58:07;;;;;;;4.88;3.35;;;23.50;94.20;;;;;;4950844;29;20109;-36
2022/06/18 07:00:35;;;;;;;6.38;3.45;;;23.50;94.10;;;;;;4948402;29;20031;-35
2022/06/18 07:03:01;;;;;;;6.90;4.70;;;23.60;94.10;;;;;;4950398;29;20038;-35
2022/06/18 07:05:27;;;;;;;5.68;4.32;;;23.60;94.10;;;;;;4949770;28;20031;-34
2022/06/18 07:07:53;;;;;;;4.97;4.03;;;23.70;94.10;;;;;;4949067;29;20564;-32
2022/06/18 07:10:18;;;;;;;7.28;4.05;;;23.60;94.00;;;;;;4949865;28;20122;-35
2022/06/18 07:12:44;;;;;;;5.28;3.70;;;23.70;94.10;;;;;;4949066;29;20051;-34
2022/06/18 07:15:10;;;;;;;7.00;3.95;;;23.70;94.10;;;;;;4950174;29;20431;-36
2022/06/18 07:17:36;;;;;;;6.85;3.78;;;23.80;94.00;;;;;;4949189;28;20023;-35
2022/06/18 07:20:03;;;;;;;5.60;3.75;;;23.80;94.00;;;;;;4948200;28;20078;-34
2022/06/18 07:22:32;;;;;;;4.72;3.50;;;23.80;94.10;;;;;;4949652;28;20034;-33
2022/06/18 07:24:58;;;;;;;7.05;3.80;;;23.80;94.10;;;;;;4949786;28;20031;-34
2022/06/18 07:27:24;;;;;;;5.05;4.03;;;23.90;94.00;;;;;;4948767;28;20468;-35
2022/06/18 07:29:50;;;;;;;5.70;4.13;;;23.90;94.20;;;;;;4960005;28;20030;-33
2022/06/18 07:32:17;;;;;;;7.78;3.47;;;24.00;94.10;;;;;;4960528;28;20039;-35
2022/06/18 07:34:44;;;;;;;5.55;3.47;;;24.10;94.00;;;;;;4948887;28;20549;-35
2022/06/18 07:37:10;;;;;;;3.80;3.22;;;24.10;94.00;;;;;;4949677;28;20795;-34
2022/06/18 07:39:36;;;;;;;4.82;3.75;;;24.20;93.90;;;;;;4948481;28;20031;-35
2022/06/18 07:42:04;;;;;;;5.63;3.70;;;24.30;94.00;;;;;;4949163;29;20028;-34
2022/06/18 07:44:30;;;;;;;8.73;3.65;;;24.30;93.90;;;;;;4948768;28;20415;-34
2022/06/18 07:47:02;;;;;;;5.15;2.92;;;24.30;93.80;;;;;;4949390;29;20475;-35
2022/06/18 07:49:28;;;;;;;5.32;3.10;;;24.40;93.80;;;;;;4944878;29;20038;-34
2022/06/18 07:51:53;;;;;;;4.57;3.70;;;24.40;93.80;;;;;;4951943;28;20395;-36
2022/06/18 07:54:19;;;;;;;5.13;3.55;;;24.40;93.80;;;;;;4951552;28;20061;-36
2022/06/18 07:56:45;;;;;;;6.05;3.97;;;24.40;93.90;;;;;;4948079;28;20287;-34
2022/06/18 07:59:12;;;;;;;3.95;3.55;;;24.40;93.90;;;;;;4948819;28;20372;-35
2022/06/18 08:01:38;;;;;;;6.25;3.80;;;24.50;93.90;;;;;;4949486;28;20023;-35
2022/06/18 08:04:05;;;;;;;6.88;3.47;;;24.50;93.80;;;;;;4948052;28;20358;-37
2022/06/18 08:06:32;;;;;;;4.68;3.40;;;24.50;93.80;;;;;;4948912;28;20069;-34
2022/06/18 08:08:58;;;;;;;5.47;3.17;;;24.60;93.80;;;;;;4947866;28;20023;-35
2022/06/18 08:11:25;;;;;;;5.95;3.53;;;24.60;93.70;;;;;;4949114;29;20030;-36
2022/06/18 08:13:52;;;;;;;5.00;3.33;;;24.70;93.70;;;;;;4948709;28;20043;-35
2022/06/18 08:16:18;;;;;;;5.05;3.85;;;24.80;93.70;;;;;;4948196;29;20138;-35
2022/06/18 08:18:44;;;;;;;7.28;4.45;;;24.80;93.70;;;;;;4950955;28;20045;-35
2022/06/18 08:21:21;;;;;;;8.52;3.65;;;24.90;93.70;;;;;;4948870;28;20106;-35
2022/06/18 08:23:48;;;;;;;5.78;3.67;;;24.90;93.60;;;;;;4947760;29;20026;-35
2022/06/18 08:26:14;;;;;;;5.10;3.42;;;24.90;93.60;;;;;;4948897;28;20031;-35
2022/06/18 08:28:40;;;;;;;5.13;2.80;;;24.90;93.60;;;;;;4947575;28;20517;-34
2022/06/18 08:31:08;;;;;;;5.55;3.05;;;25.00;93.60;;;;;;4946655;28;20035;-35
2022/06/18 08:33:34;;;;;;;3.83;3.22;;;25.00;93.60;;;;;;4948343;29;20360;-40
2022/06/18 08:36:06;;;;;;;3.03;2.72;;;25.10;93.60;;;;;;4948353;28;20071;-34
2022/06/18 08:38:32;;;;;;;;;;;25.10;93.60;;;;;;4948297;28;20035;-35
2022/06/18 08:41:16;;;;;;;4.13;3.28;;;25.20;93.50;;;;;;4954675;28;19906;-35
2022/06/18 08:43:55;;;;;;;4.85;3.00;;;25.30;93.50;;;;;;4963669;28;20023;-33
2022/06/18 08:46:26;;;;;;;7.97;4.55;;;25.20;93.30;;;;;;4944201;29;20038;-35
2022/06/18 08:49:23;;;;;;;7.22;3.47;;;25.20;93.00;;;;;;4949102;29;20027;-34
2022/06/18 08:51:51;;;;;;;7.32;4.07;;;25.30;93.00;;;;;;4946461;29;20042;-34
2022/06/18 08:54:37;;;;;;;6.47;4.13;;;25.40;93.00;;;;;;4948361;28;20046;-35
2022/06/18 08:57:22;;;;;;;5.32;3.67;;;25.50;92.90;;;;;;4948235;28;20055;-35
2022/06/18 09:00:13;;;;;;;3.33;2.88;;;25.50;92.90;;;;;;4947794;28;20034;-36
2022/06/18 09:02:58;;;;;;;5.32;3.95;;;25.50;92.80;;;;;;4940750;29;20027;-35
2022/06/18 09:05:41;;;;;;;5.65;3.40;;;25.60;92.80;;;;;;4947671;28;20027;-36
2022/06/18 09:08:37;;;;;;;6.00;3.58;;;25.70;92.80;;;;;;4949008;28;20031;-35
2022/06/18 09:11:08;;;;;;;6.78;3.47;;;25.70;92.70;;;;;;4948736;28;20039;-34
2022/06/18 09:14:14;;;;;;;7.00;3.58;;;25.70;92.50;;;;;;4947380;29;20035;-35
2022/06/18 09:16:51;;;;;;;4.95;3.08;;;25.70;92.40;;;;;;4947822;28;20046;-35
2022/06/18 09:19:19;;;;;;;6.00;3.33;;;25.70;92.40;;;;;;4931751;29;20091;-35
2022/06/18 09:21:58;;;;;;;4.53;3.03;;;25.70;92.40;;;;;;4947904;28;20040;-35
2022/06/18 09:24:40;;;;;;;4.22;2.78;;;25.80;92.50;;;;;;4929123;29;20028;-35
2022/06/18 09:27:12;;;;;;;2.83;2.50;;;25.80;92.50;;;;;;4944676;29;20127;-35
2022/06/18 09:29:48;;;;;;;6.28;3.10;;;25.90;92.40;;;;;;4948806;28;20281;-36
2022/06/18 09:32:22;;;;;;;3.50;2.70;;;26.00;92.40;;;;;;4947281;28;20252;-35
2022/06/18 09:35:15;;;;;;;3.70;2.70;;;26.10;92.40;;;;;;4927933;29;20084;-36
2022/06/18 09:37:52;;;;;;;5.40;3.22;;;26.30;92.30;;;;;;4946323;29;20039;-35
2022/06/18 09:40:44;;;;;;;4.70;2.75;;;26.30;92.10;;;;;;4947700;28;20027;-35
2022/06/18 09:43:42;;;;;;;5.43;3.35;;;26.40;91.90;;;;;;4947364;29;20110;-34
2022/06/18 09:46:23;;;;;;;4.05;3.08;;;26.50;91.70;;;;;;4947762;28;20051;-34
2022/06/18 09:48:49;;;;;;;3.33;2.40;;;26.50;92.10;;;;;;4947167;28;20446;-35
2022/06/18 09:51:37;;;;;;;4.18;2.65;;;26.50;91.80;;;;;;4948150;29;20035;-37
2022/06/18 09:54:05;;;;;;;5.05;2.90;;;26.50;91.80;;;;;;4937418;29;20045;-36
2022/06/18 09:56:35;;;;;;;3.45;2.80;;;26.60;91.80;;;;;;4946652;28;20042;-35
2022/06/18 09:59:23;;;;;;;4.88;2.60;;;26.70;91.70;;;;;;4947747;28;20450;-35
2022/06/18 10:01:55;;;;;;;3.90;2.78;;;26.80;91.60;;;;;;4947754;28;20474;-36
2022/06/18 10:07:17;;;;;;;4.75;2.70;;;26.90;91.40;;;;;;4947674;29;20078;-35
2022/06/18 10:09:51;;;;;;;4.10;3.03;;;26.90;91.40;;;;;;4947043;28;20038;-34
2022/06/18 10:12:25;;;;;;;4.35;2.70;;;26.90;91.40;;;;;;4947797;28;20062;-36
2022/06/18 10:14:57;;;;;;;3.55;2.72;;;27.00;91.40;;;;;;4937890;29;20036;-36
2022/06/18 10:17:28;;;;;;;;;;;27.10;91.30;;;;;;4947250;28;20034;-35
2022/06/18 10:20:08;;;;;;;5.78;3.30;;;27.10;91.20;;;;;;4947886;28;20609;-35
2022/06/18 10:22:38;;;;;;;7.18;3.83;;;27.10;91.00;;;;;;4946355;29;20062;-34
2022/06/18 10:25:18;;;;;;;4.18;2.72;;;27.10;91.00;;;;;;4947697;29;20027;-36
2022/06/18 10:28:09;;;;;;;6.65;3.08;;;27.10;91.00;;;;;;4947031;28;20035;-35
2022/06/18 10:31:12;;;;;;;4.75;3.20;;;27.10;91.10;;;;;;4938571;29;20402;-35
2022/06/18 10:34:20;;;;;;;4.15;2.72;;;27.10;91.10;;;;;;4943048;28;20202;-36
2022/06/18 10:37:19;;;;;;;3.55;2.92;;;27.10;91.00;;;;;;4943717;28;20043;-35
2022/06/18 10:40:09;;;;;;;4.53;3.00;;;27.20;91.00;;;;;;4946877;28;20506;-34
2022/06/18 10:42:38;;;;;;;6.70;2.90;;;27.20;91.00;;;;;;4946266;29;20031;-35
2022/06/18 10:45:15;;;;;;;6.22;3.30;;;27.30;91.00;;;;;;4945905;29;20475;-36
2022/06/18 10:47:44;;;;;;;2.90;2.63;;;27.30;90.90;;;;;;4945738;29;20031;-35
2022/06/18 10:50:14;;;;;;;3.13;2.30;;;27.40;90.80;;;;;;4947333;28;20046;-36
2022/06/18 10:52:41;;;;;;;3.88;2.58;;;27.50;90.70;;;;;;4946815;28;20090;-35
2022/06/18 10:55:21;;;;;;;3.80;2.90;;;27.50;90.60;;;;;;4950256;28;20074;-35
2022/06/18 10:57:48;;;;;;;4.40;3.70;;;27.70;90.60;;;;;;4950179;28;20388;-35
2022/06/18 11:00:24;;;;;;;5.72;3.45;;;27.70;90.50;;;;;;4950072;29;20015;-35
2022/06/18 11:02:55;;;;;;;5.90;3.53;;;27.80;90.30;;;;;;4952897;28;20110;-35
2022/06/18 11:05:29;;;;;;;3.55;2.70;;;27.90;90.20;;;;;;4946599;29;20027;-35
2022/06/18 11:07:56;;;;;;;7.10;3.20;;;28.00;90.10;;;;;;4933521;28;20063;-36
2022/06/18 11:10:33;;;;;;;5.18;3.03;;;28.00;90.00;;;;;;4959096;28;20030;-35
2022/06/18 11:13:00;;;;;;;4.97;3.33;;;28.10;90.10;;;;;;4950305;28;20046;-35
2022/06/18 11:15:36;;;;;;;3.30;3.00;;;28.10;90.10;;;;;;4952889;28;20034;-35
2022/06/18 11:18:25;;;;;;;4.00;3.20;;;28.10;90.10;;;;;;4959194;28;20019;-35
2022/06/18 11:21:01;;;;;;;7.30;3.28;;;28.10;90.00;;;;;;4950105;28;20486;-34
2022/06/18 11:23:27;;;;;;;7.72;3.50;;;28.10;89.80;;;;;;4949306;28;20039;-36
2022/06/18 11:25:56;;;;;;;6.45;2.95;;;28.20;89.50;;;;;;4950041;28;20024;-35
2022/06/18 11:28:33;;;;;;;3.45;2.30;;;28.20;89.00;;;;;;4951132;28;20035;-35
2022/06/18 11:31:01;;;;;;;4.03;2.30;;;28.30;88.60;;;;;;4950352;28;20460;-35
2022/06/18 11:33:32;;;;;;;5.53;2.42;;;28.30;88.00;;;;;;4948757;28;20624;-35
2022/06/18 11:36:06;;;;;;;3.97;2.72;;;28.40;87.70;;;;;;4950641;28;20870;-35
2022/06/18 11:38:33;;;;;;;3.70;2.58;;;28.50;87.30;;;;;;4949647;29;20062;-35
2022/06/18 11:41:13;;;;;;;5.20;2.78;;;28.50;86.80;;;;;;4947906;28;20308;-34
2022/06/18 11:43:44;;;;;;;3.40;2.38;;;28.50;86.50;;;;;;4948505;28;20023;-35
2022/06/18 11:46:29;;;;;;;4.72;2.88;;;28.60;86.00;;;;;;4948895;28;20066;-36
2022/06/18 11:49:22;;;;;;;4.90;2.58;;;28.60;85.70;;;;;;4948446;28;20522;-38
2022/06/18 11:52:02;;;;;;;4.40;2.80;;;28.60;85.00;;;;;;4945989;29;20483;-35
2022/06/18 11:54:37;;;;;;;4.38;2.35;;;28.70;85.00;;;;;;4929149;29;20458;-35
2022/06/18 11:57:53;;;;;;;3.95;2.75;;;28.80;84.90;;;;;;4944650;29;20055;-34
2022/06/18 12:00:28;;;;;;;4.22;2.85;;;28.80;84.50;;;;;;4918081;29;20039;-34
2022/06/18 12:03:20;;;;;;;6.80;3.28;;;28.90;84.00;;;;;;4948992;29;20039;-35
2022/06/18 12:05:56;;;;;;;4.73;3.27;;;28.90;83.60;;;;;;4948886;28;20023;-35
2022/06/18 12:08:22;;;;;;;4.80;2.70;;;28.90;83.90;;;;;;4948576;28;20114;-35
2022/06/18 12:10:50;;;;;;;5.05;2.55;;;28.90;83.90;;;;;;4947988;28;20035;-35
2022/06/18 12:13:43;;;;;;;3.13;2.50;;;28.90;84.00;;;;;;4945555;29;20463;-35
2022/06/18 12:16:08;;;;;;;7.60;3.15;;;29.00;83.70;;;;;;4948216;28;20026;-35
2022/06/18 12:18:48;;;;;;;4.78;2.38;;;29.00;83.80;;;;;;4958930;28;20034;-35
2022/06/18 12:21:37;;;;;;;4.15;2.83;;;29.00;83.70;;;;;;4955237;28;20633;-34
2022/06/18 12:24:26;;;;;;;5.63;3.00;;;29.10;83.70;;;;;;4958117;28;20027;-35
2022/06/18 12:27:12;;;;;;;4.97;2.63;;;29.30;83.70;;;;;;4926274;28;20391;-35
2022/06/18 12:30:04;;;;;;;4.85;3.00;;;29.30;83.50;;;;;;4950074;28;20442;-36
2022/06/18 12:32:48;;;;;;;7.53;3.67;;;29.40;83.10;;;;;;4945724;28;20410;-34
2022/06/18 12:35:22;;;;;;;6.30;3.40;;;29.50;82.90;;;;;;4948978;29;20046;-36
2022/06/18 12:38:11;;;;;;;5.78;3.33;;;29.60;82.70;;;;;;4947544;29;20094;-36
2022/06/18 12:40:36;;;;;;;7.18;3.45;;;29.80;82.40;;;;;;4950898;28;20030;-34
2022/06/18 12:43:10;;;;;;;5.88;3.10;;;29.90;81.70;;;;;;4949051;29;20043;-35
2022/06/18 12:45:49;;;;;;;7.20;2.85;;;30.00;81.70;;;;;;4948017;28;20038;-35
2022/06/18 12:48:27;;;;;;;7.10;4.28;;;30.10;81.40;;;;;;4948691;29;20117;-35
2022/06/18 12:51:03;;;;;;;4.47;2.83;;;30.20;81.60;;;;;;4948052;29;20038;-35
2022/06/18 12:53:45;;;;;;;4.22;3.05;;;30.20;82.10;;;;;;4947911;29;20043;-36
2022/06/18 12:56:26;;;;;;;3.63;2.47;;;30.30;81.90;;;;;;4947918;28;20105;-35
2022/06/18 12:59:18;;;;;;;6.60;3.05;;;30.30;81.80;;;;;;4946900;29;20078;-35
2022/06/18 13:01:50;;;;;;;7.13;3.10;;;30.30;81.50;;;;;;4928411;29;20070;-35
2022/06/18 13:04:20;;;;;;;4.70;2.80;;;30.40;81.60;;;;;;4942781;29;20094;-37
2022/06/18 13:06:53;;;;;;;5.68;3.03;;;30.40;82.20;;;;;;4947683;28;20042;-36
2022/06/18 13:09:35;;;;;;;4.00;2.70;;;30.30;81.60;;;;;;4948381;28;20483;-35
2022/06/18 13:12:13;;;;;;;7.95;3.50;;;30.20;81.60;;;;;;4928514;29;20117;-36
2022/06/18 13:15:07;;;;;;;6.90;2.95;;;30.10;81.50;;;;;;4944329;29;20115;-34
2022/06/18 13:17:45;;;;;;;3.72;2.97;;;30.00;81.30;;;;;;4928311;29;20478;-38
2022/06/18 13:20:25;;;;;;;3.90;2.85;;;29.90;81.40;;;;;;4946597;29;20487;-36
2022/06/18 13:22:51;;;;;;;7.78;2.85;;;30.00;81.60;;;;;;4947952;28;20036;-36
2022/06/18 13:28:26;;;;;;;4.75;3.00;;;30.00;81.20;;;;;;4948580;29;20110;-37
2022/06/18 13:31:17;;;;;;;3.67;2.85;;;29.90;80.80;;;;;;4944987;29;20472;-36